Yankton, SD

3:30 PM CDT on August 23, 2014 (GMT -0500)
Gurney Municipal | Change Station
CLOSE
Current Station
Airport
Location: Yankton,
Elevation: 1306 ft
Nearby Weather Stations

Elev 1306 ft 42.92 °N, 97.39 °W | Updated 15 minutes ago

Overcast
Overcast
81 °F
Feels Like 85 °F
N
17
Wind Variable Wind from SE

Today
High -- | Low -- °F
--% Chance of Precip.
Yesterday
High -- | Low -- °F
Precip. -- in
6:44 AM 8:19 PM
Waning Crescent, 3% visible
Pressure 29.80 in
Visibility 10.0 miles
Clouds Mostly Cloudy 2500 ft
Overcast 3400 ft
Heat Index 85 °F
Dew Point 72 °F
Humidity 74%
Rainfall 0.21 in
Snow Depth Not available.
UV 2 out of 12
Pollen .30 out of 12
Air Quality Not available.
Flu Activity Not available.
METAR KYKN 232015Z AUTO 14015KT 10SM BKN025 OVC034 27/22 A2980 RMK AO1

More Conditions Fewer Conditions

Pressure 29.80 in
Visibility 10.0 miles
Clouds Mostly Cloudy 2500 ft
Overcast 3400 ft
Heat Index 85 °F
Dew Point 72 °F
Humidity 74%
Rainfall 0.21 in
Snow Depth Not available.
UV 2 out of 12
Pollen .30 out of 12
Air Quality Not available.
Flu Activity Not available.
METAR KYKN 232015Z AUTO 14015KT 10SM BKN025 OVC034 27/22 A2980 RMK AO1

More Conditions Fewer Conditions

10-Day Weather Forecast

Almanac

Astronomy

Aug. 23, 2014 Rise Set
Actual Time 6:44 AM CDT 8:19 PM CDT
Civil Twilight 6:14 AM CDT 8:48 PM CDT
Nautical Twilight 5:38 AM CDT 9:24 PM CDT
Astronomical Twilight 4:59 AM CDT 10:03 PM CDT
Moon 5:00 AM CDT 7:04 PM CDT
Length of Visible Light 14h 34m
Length of Day
13h 34m
Tomorrow will be 2m 42s shorter.
Waning Crescent, 3% of the Moon is Illuminated
Today
Waning Crescent
Aug 25
New
Sep 2
First Quarter
Sep 8
Full
Sep 15
Last Quarter

Today's Extremes

State Highs State Lows

Community

WunderPhotos

Upload Photos

1,746,619 photos uploaded!

WunderBlogs® & News

Nearby

Snow Depth

Station Depth Elevation
Blind Park 0 in 6890 ft

Earthquake Activity

City Distance Mag. Time & Date
No recent earthquake activity has been reported nearby.
Minimum magnitude displayed is 2.5.

Coastal Water Temperatures

Place Temperature
No Stations Reporting

Nearby Weather Stations